sensor_id;sensor_type;location;lat;lon;timestamp;temperature;humidity
148;DHT22;142;50.652;12.216;2023-04-19T00:01:10;10.40;25.80
148;DHT22;142;50.652;12.216;2023-04-19T00:03:38;10.40;25.60
148;DHT22;142;50.652;12.216;2023-04-19T00:06:06;10.30;25.70
148;DHT22;142;50.652;12.216;2023-04-19T00:08:34;10.30;25.70
148;DHT22;142;50.652;12.216;2023-04-19T00:11:02;10.40;25.90
148;DHT22;142;50.652;12.216;2023-04-19T00:13:29;10.40;25.90
148;DHT22;142;50.652;12.216;2023-04-19T00:15:56;10.40;25.90
148;DHT22;142;50.652;12.216;2023-04-19T00:18:23;10.50;25.90
148;DHT22;142;50.652;12.216;2023-04-19T00:20:52;10.50;25.80
148;DHT22;142;50.652;12.216;2023-04-19T00:23:19;10.40;25.60
148;DHT22;142;50.652;12.216;2023-04-19T00:25:47;10.50;25.70
148;DHT22;142;50.652;12.216;2023-04-19T00:28:14;10.50;25.60
148;DHT22;142;50.652;12.216;2023-04-19T00:30:43;10.50;25.50
148;DHT22;142;50.652;12.216;2023-04-19T00:33:10;10.50;25.60
148;DHT22;142;50.652;12.216;2023-04-19T00:35:39;10.60;25.40
148;DHT22;142;50.652;12.216;2023-04-19T00:38:08;10.60;25.40
148;DHT22;142;50.652;12.216;2023-04-19T00:40:35;10.60;25.40
148;DHT22;142;50.652;12.216;2023-04-19T00:43:02;10.60;25.10
148;DHT22;142;50.652;12.216;2023-04-19T00:45:31;10.50;25.00
148;DHT22;142;50.652;12.216;2023-04-19T00:47:59;10.50;25.00
148;DHT22;142;50.652;12.216;2023-04-19T00:50:26;10.50;24.90
148;DHT22;142;50.652;12.216;2023-04-19T00:52:54;10.50;24.90
148;DHT22;142;50.652;12.216;2023-04-19T00:55:23;10.60;24.90
148;DHT22;142;50.652;12.216;2023-04-19T00:57:51;10.50;24.60
148;DHT22;142;50.652;12.216;2023-04-19T01:00:18;10.50;24.60
148;DHT22;142;50.652;12.216;2023-04-19T01:02:45;10.50;24.70
148;DHT22;142;50.652;12.216;2023-04-19T01:05:13;10.50;24.60
148;DHT22;142;50.652;12.216;2023-04-19T01:07:40;10.50;24.70
148;DHT22;142;50.652;12.216;2023-04-19T01:10:08;10.50;24.50
148;DHT22;142;50.652;12.216;2023-04-19T01:12:37;10.40;24.40
148;DHT22;142;50.652;12.216;2023-04-19T01:15:05;10.40;24.40
148;DHT22;142;50.652;12.216;2023-04-19T01:17:34;10.40;24.50
148;DHT22;142;50.652;12.216;2023-04-19T01:20:02;10.40;24.50
148;DHT22;142;50.652;12.216;2023-04-19T01:22:34;10.40;24.40
148;DHT22;142;50.652;12.216;2023-04-19T01:25:02;10.20;24.10
148;DHT22;142;50.652;12.216;2023-04-19T01:27:30;10.20;24.20
148;DHT22;142;50.652;12.216;2023-04-19T01:29:57;10.20;24.40
148;DHT22;142;50.652;12.216;2023-04-19T01:32:24;10.20;24.50
148;DHT22;142;50.652;12.216;2023-04-19T01:34:52;10.10;24.10
148;DHT22;142;50.652;12.216;2023-04-19T01:37:19;10.10;24.20
148;DHT22;142;50.652;12.216;2023-04-19T01:39:47;10.10;24.30
148;DHT22;142;50.652;12.216;2023-04-19T01:42:14;10.10;24.10
148;DHT22;142;50.652;12.216;2023-04-19T01:44:41;10.00;24.00
148;DHT22;142;50.652;12.216;2023-04-19T01:47:08;10.00;24.10
148;DHT22;142;50.652;12.216;2023-04-19T01:49:36;10.00;24.00
148;DHT22;142;50.652;12.216;2023-04-19T01:52:03;10.00;24.40
148;DHT22;142;50.652;12.216;2023-04-19T01:54:31;10.00;24.30
148;DHT22;142;50.652;12.216;2023-04-19T01:56:59;10.10;24.40
148;DHT22;142;50.652;12.216;2023-04-19T01:59:27;10.10;24.30
148;DHT22;142;50.652;12.216;2023-04-19T02:01:54;10.10;24.20
148;DHT22;142;50.652;12.216;2023-04-19T02:04:21;10.10;24.30
148;DHT22;142;50.652;12.216;2023-04-19T02:06:48;10.10;24.30
148;DHT22;142;50.652;12.216;2023-04-19T02:09:15;10.00;24.30
148;DHT22;142;50.652;12.216;2023-04-19T02:11:42;10.00;24.20
148;DHT22;142;50.652;12.216;2023-04-19T02:14:10;10.00;24.20
148;DHT22;142;50.652;12.216;2023-04-19T02:16:37;9.90;24.10
148;DHT22;142;50.652;12.216;2023-04-19T02:19:04;9.80;24.10
148;DHT22;142;50.652;12.216;2023-04-19T02:21:32;9.80;24.00
148;DHT22;142;50.652;12.216;2023-04-19T02:23:59;9.70;24.10
148;DHT22;142;50.652;12.216;2023-04-19T02:26:26;9.60;23.90
148;DHT22;142;50.652;12.216;2023-04-19T02:28:53;9.60;23.90
148;DHT22;142;50.652;12.216;2023-04-19T02:31:22;9.60;24.10
148;DHT22;142;50.652;12.216;2023-04-19T02:33:49;9.60;24.10
148;DHT22;142;50.652;12.216;2023-04-19T02:36:16;9.60;24.00
148;DHT22;142;50.652;12.216;2023-04-19T02:38:43;9.70;24.00
148;DHT22;142;50.652;12.216;2023-04-19T02:41:10;9.70;24.00
148;DHT22;142;50.652;12.216;2023-04-19T02:43:38;9.70;23.90
148;DHT22;142;50.652;12.216;2023-04-19T02:46:05;9.60;23.80
148;DHT22;142;50.652;12.216;2023-04-19T02:48:33;9.60;23.90
148;DHT22;142;50.652;12.216;2023-04-19T02:51:01;9.60;23.90
148;DHT22;142;50.652;12.216;2023-04-19T02:53:28;9.60;23.90
148;DHT22;142;50.652;12.216;2023-04-19T02:55:55;9.60;23.90
148;DHT22;142;50.652;12.216;2023-04-19T02:58:22;9.60;23.70
148;DHT22;142;50.652;12.216;2023-04-19T03:00:49;9.50;23.70
148;DHT22;142;50.652;12.216;2023-04-19T03:03:16;9.40;23.50
148;DHT22;142;50.652;12.216;2023-04-19T03:05:45;9.40;23.60
148;DHT22;142;50.652;12.216;2023-04-19T03:08:12;9.30;23.50
148;DHT22;142;50.652;12.216;2023-04-19T03:10:39;9.20;23.20
148;DHT22;142;50.652;12.216;2023-04-19T03:13:06;9.20;23.50
148;DHT22;142;50.652;12.216;2023-04-19T03:15:33;9.10;23.50
148;DHT22;142;50.652;12.216;2023-04-19T03:18:00;9.10;23.40
148;DHT22;142;50.652;12.216;2023-04-19T03:20:28;9.10;23.40
148;DHT22;142;50.652;12.216;2023-04-19T03:22:56;9.10;23.50
148;DHT22;142;50.652;12.216;2023-04-19T03:25:25;9.00;23.40
148;DHT22;142;50.652;12.216;2023-04-19T03:27:52;8.80;23.40
148;DHT22;142;50.652;12.216;2023-04-19T03:30:20;8.80;23.20
148;DHT22;142;50.652;12.216;2023-04-19T03:32:47;8.70;23.50
148;DHT22;142;50.652;12.216;2023-04-19T03:35:14;8.70;23.50
148;DHT22;142;50.652;12.216;2023-04-19T03:37:41;8.70;23.50
148;DHT22;142;50.652;12.216;2023-04-19T03:40:11;8.70;23.40
148;DHT22;142;50.652;12.216;2023-04-19T03:42:39;8.60;23.40
148;DHT22;142;50.652;12.216;2023-04-19T03:45:07;8.60;23.50
148;DHT22;142;50.652;12.216;2023-04-19T03:47:34;8.60;23.50
148;DHT22;142;50.652;12.216;2023-04-19T03:50:01;8.60;23.30
148;DHT22;142;50.652;12.216;2023-04-19T03:52:28;8.60;23.40
148;DHT22;142;50.652;12.216;2023-04-19T03:54:55;8.60;23.40
148;DHT22;142;50.652;12.216;2023-04-19T03:57:24;8.60;23.40
148;DHT22;142;50.652;12.216;2023-04-19T03:59:52;8.60;23.30
148;DHT22;142;50.652;12.216;2023-04-19T04:02:19;8.50;23.20
148;DHT22;142;50.652;12.216;2023-04-19T04:04:48;8.50;23.30
148;DHT22;142;50.652;12.216;2023-04-19T04:07:18;8.50;23.20
148;DHT22;142;50.652;12.216;2023-04-19T04:09:47;8.50;23.30
148;DHT22;142;50.652;12.216;2023-04-19T04:12:14;8.40;23.20
148;DHT22;142;50.652;12.216;2023-04-19T04:14:43;8.40;23.20
148;DHT22;142;50.652;12.216;2023-04-19T04:17:10;8.50;23.50
148;DHT22;142;50.652;12.216;2023-04-19T04:19:37;8.50;23.50
148;DHT22;142;50.652;12.216;2023-04-19T04:22:05;8.50;23.60
148;DHT22;142;50.652;12.216;2023-04-19T04:24:37;8.50;23.70
148;DHT22;142;50.652;12.216;2023-04-19T04:27:06;8.50;23.70
148;DHT22;142;50.652;12.216;2023-04-19T04:29:35;8.50;23.80
148;DHT22;142;50.652;12.216;2023-04-19T04:32:05;8.40;23.70
148;DHT22;142;50.652;12.216;2023-04-19T04:34:33;8.40;23.60
148;DHT22;142;50.652;12.216;2023-04-19T04:37:01;8.30;23.50
148;DHT22;142;50.652;12.216;2023-04-19T04:39:28;8.30;23.60
148;DHT22;142;50.652;12.216;2023-04-19T04:41:59;8.20;23.70
148;DHT22;142;50.652;12.216;2023-04-19T04:44:26;8.20;23.80
148;DHT22;142;50.652;12.216;2023-04-19T04:46:53;8.20;23.80
148;DHT22;142;50.652;12.216;2023-04-19T04:49:22;8.10;23.70
148;DHT22;142;50.652;12.216;2023-04-19T04:51:49;8.10;23.90
148;DHT22;142;50.652;12.216;2023-04-19T04:54:16;8.10;24.10
148;DHT22;142;50.652;12.216;2023-04-19T04:56:43;8.00;24.10
148;DHT22;142;50.652;12.216;2023-04-19T04:59:10;8.00;24.30
148;DHT22;142;50.652;12.216;2023-04-19T05:01:37;8.10;24.40
148;DHT22;142;50.652;12.216;2023-04-19T05:04:04;8.20;24.50
148;DHT22;142;50.652;12.216;2023-04-19T05:06:34;8.10;24.40
148;DHT22;142;50.652;12.216;2023-04-19T05:09:01;8.10;24.40
148;DHT22;142;50.652;12.216;2023-04-19T05:11:28;8.10;24.30
148;DHT22;142;50.652;12.216;2023-04-19T05:13:55;8.10;24.40
148;DHT22;142;50.652;12.216;2023-04-19T05:16:23;7.90;24.30
148;DHT22;142;50.652;12.216;2023-04-19T05:18:50;7.90;24.40
148;DHT22;142;50.652;12.216;2023-04-19T05:21:17;7.80;24.60
148;DHT22;142;50.652;12.216;2023-04-19T05:23:45;7.70;24.60
148;DHT22;142;50.652;12.216;2023-04-19T05:26:13;7.70;24.80
148;DHT22;142;50.652;12.216;2023-04-19T05:28:42;7.70;25.00
148;DHT22;142;50.652;12.216;2023-04-19T05:31:09;7.60;24.90
148;DHT22;142;50.652;12.216;2023-04-19T05:33:37;7.50;25.00
148;DHT22;142;50.652;12.216;2023-04-19T05:36:04;7.40;25.20
148;DHT22;142;50.652;12.216;2023-04-19T05:38:31;7.20;25.30
148;DHT22;142;50.652;12.216;2023-04-19T05:41:00;7.20;25.60
148;DHT22;142;50.652;12.216;2023-04-19T05:43:27;7.10;25.80
148;DHT22;142;50.652;12.216;2023-04-19T05:45:54;7.10;26.00
148;DHT22;142;50.652;12.216;2023-04-19T05:48:21;7.10;25.90
148;DHT22;142;50.652;12.216;2023-04-19T05:50:50;7.10;25.90
148;DHT22;142;50.652;12.216;2023-04-19T05:53:19;7.10;26.00
148;DHT22;142;50.652;12.216;2023-04-19T05:55:47;7.10;26.10
148;DHT22;142;50.652;12.216;2023-04-19T05:58:17;7.10;26.20
148;DHT22;142;50.652;12.216;2023-04-19T06:00:45;7.10;26.10
148;DHT22;142;50.652;12.216;2023-04-19T06:03:13;7.00;26.10
148;DHT22;142;50.652;12.216;2023-04-19T06:05:40;6.90;26.10
148;DHT22;142;50.652;12.216;2023-04-19T06:08:08;7.00;26.10
148;DHT22;142;50.652;12.216;2023-04-19T06:10:36;7.00;25.90
148;DHT22;142;50.652;12.216;2023-04-19T06:13:03;6.90;26.00
148;DHT22;142;50.652;12.216;2023-04-19T06:15:32;6.90;25.90
148;DHT22;142;50.652;12.216;2023-04-19T06:17:59;6.80;25.90
148;DHT22;142;50.652;12.216;2023-04-19T06:20:26;6.80;25.80
148;DHT22;142;50.652;12.216;2023-04-19T06:22:53;6.70;25.70
148;DHT22;142;50.652;12.216;2023-04-19T06:25:21;6.70;25.80
148;DHT22;142;50.652;12.216;2023-04-19T06:27:47;6.80;25.80
148;DHT22;142;50.652;12.216;2023-04-19T06:30:14;6.90;25.80
148;DHT22;142;50.652;12.216;2023-04-19T06:32:43;6.80;25.60
148;DHT22;142;50.652;12.216;2023-04-19T06:35:10;6.70;25.30
148;DHT22;142;50.652;12.216;2023-04-19T06:37:37;6.70;25.10
148;DHT22;142;50.652;12.216;2023-04-19T06:40:06;6.60;25.20
148;DHT22;142;50.652;12.216;2023-04-19T06:42:34;6.60;24.90
148;DHT22;142;50.652;12.216;2023-04-19T06:45:01;6.60;25.00
148;DHT22;142;50.652;12.216;2023-04-19T06:47:29;6.70;25.10
148;DHT22;142;50.652;12.216;2023-04-19T06:49:57;6.70;24.90
148;DHT22;142;50.652;12.216;2023-04-19T06:52:25;6.70;24.90
148;DHT22;142;50.652;12.216;2023-04-19T06:54:52;6.50;24.80
148;DHT22;142;50.652;12.216;2023-04-19T06:57:19;6.40;24.90
148;DHT22;142;50.652;12.216;2023-04-19T06:59:46;6.40;24.90
148;DHT22;142;50.652;12.216;2023-04-19T07:02:13;6.40;24.90
148;DHT22;142;50.652;12.216;2023-04-19T07:04:40;6.50;25.00
148;DHT22;142;50.652;12.216;2023-04-19T07:07:09;6.60;25.10
148;DHT22;142;50.652;12.216;2023-04-19T07:09:36;6.70;24.90
148;DHT22;142;50.652;12.216;2023-04-19T07:12:03;6.80;24.70
148;DHT22;142;50.652;12.216;2023-04-19T07:14:30;7.00;24.80
148;DHT22;142;50.652;12.216;2023-04-19T07:16:57;7.10;24.70
148;DHT22;142;50.652;12.216;2023-04-19T07:19:24;7.30;24.60
148;DHT22;142;50.652;12.216;2023-04-19T07:21:56;7.50;24.30
148;DHT22;142;50.652;12.216;2023-04-19T07:24:24;7.60;24.00
148;DHT22;142;50.652;12.216;2023-04-19T07:26:54;7.70;24.00
148;DHT22;142;50.652;12.216;2023-04-19T07:29:22;7.80;23.80
148;DHT22;142;50.652;12.216;2023-04-19T07:31:48;7.90;23.80
148;DHT22;142;50.652;12.216;2023-04-19T07:34:16;8.10;23.40
148;DHT22;142;50.652;12.216;2023-04-19T07:36:43;8.20;23.50
148;DHT22;142;50.652;12.216;2023-04-19T07:39:10;8.20;22.70
148;DHT22;142;50.652;12.216;2023-04-19T07:41:39;8.20;22.30
148;DHT22;142;50.652;12.216;2023-04-19T07:44:06;8.20;22.30
148;DHT22;142;50.652;12.216;2023-04-19T07:46:33;8.30;22.30
148;DHT22;142;50.652;12.216;2023-04-19T07:49:00;8.40;22.30
148;DHT22;142;50.652;12.216;2023-04-19T07:51:27;8.50;22.10
148;DHT22;142;50.652;12.216;2023-04-19T07:53:54;8.60;21.80
148;DHT22;142;50.652;12.216;2023-04-19T07:56:21;8.20;22.60
148;DHT22;142;50.652;12.216;2023-04-19T07:58:52;8.10;22.00
148;DHT22;142;50.652;12.216;2023-04-19T08:01:20;8.20;22.00
148;DHT22;142;50.652;12.216;2023-04-19T08:03:46;8.30;22.00
148;DHT22;142;50.652;12.216;2023-04-19T08:06:14;8.40;22.10
148;DHT22;142;50.652;12.216;2023-04-19T08:08:42;8.30;24.20
148;DHT22;142;50.652;12.216;2023-04-19T08:11:09;8.30;23.20
148;DHT22;142;50.652;12.216;2023-04-19T08:13:36;8.40;23.50
148;DHT22;142;50.652;12.216;2023-04-19T08:16:06;8.50;24.50
148;DHT22;142;50.652;12.216;2023-04-19T08:18:33;8.60;28.80
148;DHT22;142;50.652;12.216;2023-04-19T08:21:00;8.60;33.30
148;DHT22;142;50.652;12.216;2023-04-19T08:23:28;8.50;34.30
148;DHT22;142;50.652;12.216;2023-04-19T08:25:55;8.60;34.70
148;DHT22;142;50.652;12.216;2023-04-19T08:28:22;8.50;67.30
148;DHT22;142;50.652;12.216;2023-04-19T08:30:49;8.50;72.30
148;DHT22;142;50.652;12.216;2023-04-19T08:33:17;8.60;73.40
148;DHT22;142;50.652;12.216;2023-04-19T08:35:45;8.60;75.30
148;DHT22;142;50.652;12.216;2023-04-19T08:38:12;8.60;74.20
148;DHT22;142;50.652;12.216;2023-04-19T08:40:42;8.70;75.00
148;DHT22;142;50.652;12.216;2023-04-19T08:43:11;8.70;76.50
148;DHT22;142;50.652;12.216;2023-04-19T08:45:38;8.60;76.80
148;DHT22;142;50.652;12.216;2023-04-19T08:48:08;8.60;77.10
148;DHT22;142;50.652;12.216;2023-04-19T08:50:40;8.70;76.80
148;DHT22;142;50.652;12.216;2023-04-19T08:53:07;8.70;77.00
148;DHT22;142;50.652;12.216;2023-04-19T08:55:36;8.80;77.40
148;DHT22;142;50.652;12.216;2023-04-19T08:58:03;8.80;77.10
148;DHT22;142;50.652;12.216;2023-04-19T09:00:32;8.80;77.50
148;DHT22;142;50.652;12.216;2023-04-19T09:02:59;8.70;80.20
148;DHT22;142;50.652;12.216;2023-04-19T09:05:26;8.70;80.50
148;DHT22;142;50.652;12.216;2023-04-19T09:08:22;8.70;80.20
148;DHT22;142;50.652;12.216;2023-04-19T09:10:55;8.80;80.50
148;DHT22;142;50.652;12.216;2023-04-19T09:13:23;8.80;80.80
148;DHT22;142;50.652;12.216;2023-04-19T09:15:51;8.80;81.10
148;DHT22;142;50.652;12.216;2023-04-19T09:18:22;9.00;81.10
148;DHT22;142;50.652;12.216;2023-04-19T09:20:54;9.00;84.80
148;DHT22;142;50.652;12.216;2023-04-19T09:23:26;9.00;85.60
148;DHT22;142;50.652;12.216;2023-04-19T09:25:55;9.10;85.40
148;DHT22;142;50.652;12.216;2023-04-19T09:28:25;9.20;85.30
148;DHT22;142;50.652;12.216;2023-04-19T09:30:53;9.20;84.80
148;DHT22;142;50.652;12.216;2023-04-19T09:33:31;9.20;85.00
148;DHT22;142;50.652;12.216;2023-04-19T09:35:59;9.30;85.00
148;DHT22;142;50.652;12.216;2023-04-19T09:38:28;9.30;84.00
148;DHT22;142;50.652;12.216;2023-04-19T09:41:06;9.40;85.30
148;DHT22;142;50.652;12.216;2023-04-19T09:43:33;9.60;86.60
148;DHT22;142;50.652;12.216;2023-04-19T09:46:00;9.60;84.70
148;DHT22;142;50.652;12.216;2023-04-19T09:48:28;9.70;86.10
148;DHT22;142;50.652;12.216;2023-04-19T09:50:56;9.80;86.10
148;DHT22;142;50.652;12.216;2023-04-19T09:53:24;9.80;84.60
148;DHT22;142;50.652;12.216;2023-04-19T09:55:53;9.90;85.70
148;DHT22;142;50.652;12.216;2023-04-19T09:58:21;9.90;84.00
148;DHT22;142;50.652;12.216;2023-04-19T10:00:48;9.90;83.60
148;DHT22;142;50.652;12.216;2023-04-19T10:03:17;9.90;83.70
148;DHT22;142;50.652;12.216;2023-04-19T10:05:44;9.90;82.40
148;DHT22;142;50.652;12.216;2023-04-19T10:08:13;10.00;83.00
148;DHT22;142;50.652;12.216;2023-04-19T10:10:41;10.00;82.80
148;DHT22;142;50.652;12.216;2023-04-19T10:13:11;10.10;81.90
148;DHT22;142;50.652;12.216;2023-04-19T10:15:40;10.00;81.50
148;DHT22;142;50.652;12.216;2023-04-19T10:18:08;10.00;81.40
148;DHT22;142;50.652;12.216;2023-04-19T10:20:41;10.00;82.10
148;DHT22;142;50.652;12.216;2023-04-19T10:23:14;10.20;82.90
148;DHT22;142;50.652;12.216;2023-04-19T10:25:45;10.40;83.10
148;DHT22;142;50.652;12.216;2023-04-19T10:28:14;10.40;80.50
148;DHT22;142;50.652;12.216;2023-04-19T10:30:52;10.60;81.10
148;DHT22;142;50.652;12.216;2023-04-19T10:33:24;10.80;82.40
148;DHT22;142;50.652;12.216;2023-04-19T10:35:55;11.00;81.70
148;DHT22;142;50.652;12.216;2023-04-19T10:38:35;11.10;80.30
148;DHT22;142;50.652;12.216;2023-04-19T10:41:03;11.00;79.90
148;DHT22;142;50.652;12.216;2023-04-19T10:43:37;11.00;81.40
148;DHT22;142;50.652;12.216;2023-04-19T10:46:09;10.90;81.10
148;DHT22;142;50.652;12.216;2023-04-19T10:48:48;11.20;83.10
148;DHT22;142;50.652;12.216;2023-04-19T10:51:18;11.40;81.00
148;DHT22;142;50.652;12.216;2023-04-19T10:53:56;11.20;79.30
148;DHT22;142;50.652;12.216;2023-04-19T10:56:58;10.80;77.70
148;DHT22;142;50.652;12.216;2023-04-19T10:59:29;10.70;80.30
148;DHT22;142;50.652;12.216;2023-04-19T11:01:57;10.90;80.30
148;DHT22;142;50.652;12.216;2023-04-19T11:04:57;11.00;81.70
148;DHT22;142;50.652;12.216;2023-04-19T11:07:25;10.80;80.30
148;DHT22;142;50.652;12.216;2023-04-19T11:09:52;10.90;82.40
148;DHT22;142;50.652;12.216;2023-04-19T11:12:20;11.00;82.40
148;DHT22;142;50.652;12.216;2023-04-19T11:14:51;11.00;81.70
148;DHT22;142;50.652;12.216;2023-04-19T11:17:19;11.00;82.70
148;DHT22;142;50.652;12.216;2023-04-19T11:19:53;11.30;83.00
148;DHT22;142;50.652;12.216;2023-04-19T11:22:24;11.40;79.90
148;DHT22;142;50.652;12.216;2023-04-19T11:24:52;11.30;78.20
148;DHT22;142;50.652;12.216;2023-04-19T11:27:20;11.30;79.40
148;DHT22;142;50.652;12.216;2023-04-19T11:29:49;11.50;78.70
148;DHT22;142;50.652;12.216;2023-04-19T11:32:20;11.70;79.30
148;DHT22;142;50.652;12.216;2023-04-19T11:34:47;11.70;79.10
148;DHT22;142;50.652;12.216;2023-04-19T11:37:14;11.80;79.90
148;DHT22;142;50.652;12.216;2023-04-19T11:39:45;12.00;77.50
148;DHT22;142;50.652;12.216;2023-04-19T11:42:17;12.10;75.90
148;DHT22;142;50.652;12.216;2023-04-19T11:44:49;12.20;76.20
148;DHT22;142;50.652;12.216;2023-04-19T11:47:18;12.30;75.10
148;DHT22;142;50.652;12.216;2023-04-19T11:49:45;12.20;73.50
148;DHT22;142;50.652;12.216;2023-04-19T11:52:20;12.10;74.50
148;DHT22;142;50.652;12.216;2023-04-19T11:54:47;12.00;73.50
148;DHT22;142;50.652;12.216;2023-04-19T11:57:14;12.10;74.50
148;DHT22;142;50.652;12.216;2023-04-19T12:00:05;12.20;75.30
148;DHT22;142;50.652;12.216;2023-04-19T12:02:38;12.40;74.30
148;DHT22;142;50.652;12.216;2023-04-19T12:05:09;12.50;72.00
148;DHT22;142;50.652;12.216;2023-04-19T12:10:20;11.80;72.90
148;DHT22;142;50.652;12.216;2023-04-19T12:12:48;11.80;74.30
148;DHT22;142;50.652;12.216;2023-04-19T12:15:17;11.70;73.60
148;DHT22;142;50.652;12.216;2023-04-19T12:17:57;11.80;74.40
148;DHT22;142;50.652;12.216;2023-04-19T12:20:30;12.10;75.70
148;DHT22;142;50.652;12.216;2023-04-19T12:22:58;12.30;75.90
148;DHT22;142;50.652;12.216;2023-04-19T12:25:28;12.40;75.00
148;DHT22;142;50.652;12.216;2023-04-19T12:27:55;12.40;75.70
148;DHT22;142;50.652;12.216;2023-04-19T12:30:25;12.40;74.20
148;DHT22;142;50.652;12.216;2023-04-19T12:32:53;12.50;74.70
148;DHT22;142;50.652;12.216;2023-04-19T12:35:21;12.60;73.60
148;DHT22;142;50.652;12.216;2023-04-19T12:37:51;12.70;73.50
148;DHT22;142;50.652;12.216;2023-04-19T12:40:19;12.80;72.40
148;DHT22;142;50.652;12.216;2023-04-19T12:42:46;12.80;73.90
148;DHT22;142;50.652;12.216;2023-04-19T12:45:13;12.90;71.80
148;DHT22;142;50.652;12.216;2023-04-19T12:47:42;12.90;72.20
148;DHT22;142;50.652;12.216;2023-04-19T12:50:10;12.80;73.40
148;DHT22;142;50.652;12.216;2023-04-19T12:52:38;12.70;72.60
148;DHT22;142;50.652;12.216;2023-04-19T12:55:06;12.60;72.50
148;DHT22;142;50.652;12.216;2023-04-19T12:57:33;12.40;73.60
148;DHT22;142;50.652;12.216;2023-04-19T13:00:01;12.10;76.80
148;DHT22;142;50.652;12.216;2023-04-19T13:02:29;12.00;75.40
148;DHT22;142;50.652;12.216;2023-04-19T13:04:59;11.90;76.80
148;DHT22;142;50.652;12.216;2023-04-19T13:07:27;11.90;76.50
148;DHT22;142;50.652;12.216;2023-04-19T13:09:54;11.70;79.30
148;DHT22;142;50.652;12.216;2023-04-19T13:12:21;11.40;82.60
148;DHT22;142;50.652;12.216;2023-04-19T13:14:49;11.20;84.10
148;DHT22;142;50.652;12.216;2023-04-19T13:17:17;11.20;85.50
148;DHT22;142;50.652;12.216;2023-04-19T13:19:44;11.00;87.00
148;DHT22;142;50.652;12.216;2023-04-19T13:22:15;11.00;87.70
148;DHT22;142;50.652;12.216;2023-04-19T13:24:42;11.10;87.40
148;DHT22;142;50.652;12.216;2023-04-19T13:27:10;11.30;87.40
148;DHT22;142;50.652;12.216;2023-04-19T13:29:37;11.60;86.40
148;DHT22;142;50.652;12.216;2023-04-19T13:32:04;11.80;83.60
148;DHT22;142;50.652;12.216;2023-04-19T13:34:37;12.00;81.80
148;DHT22;142;50.652;12.216;2023-04-19T13:37:06;12.00;81.00
148;DHT22;142;50.652;12.216;2023-04-19T13:39:35;12.10;80.90
148;DHT22;142;50.652;12.216;2023-04-19T13:42:02;12.30;78.70
148;DHT22;142;50.652;12.216;2023-04-19T13:44:30;12.40;77.40
148;DHT22;142;50.652;12.216;2023-04-19T13:46:57;12.60;76.30
148;DHT22;142;50.652;12.216;2023-04-19T13:49:25;12.60;76.80
148;DHT22;142;50.652;12.216;2023-04-19T13:51:52;12.40;78.00
148;DHT22;142;50.652;12.216;2023-04-19T13:54:19;12.10;78.20
148;DHT22;142;50.652;12.216;2023-04-19T13:56:48;12.10;78.80
148;DHT22;142;50.652;12.216;2023-04-19T13:59:15;12.00;76.60
148;DHT22;142;50.652;12.216;2023-04-19T14:01:42;11.90;77.50
148;DHT22;142;50.652;12.216;2023-04-19T14:04:10;11.90;78.30
148;DHT22;142;50.652;12.216;2023-04-19T14:06:37;12.00;78.40
148;DHT22;142;50.652;12.216;2023-04-19T14:09:05;12.10;77.40
148;DHT22;142;50.652;12.216;2023-04-19T14:11:33;12.10;78.20
148;DHT22;142;50.652;12.216;2023-04-19T14:14:03;12.20;78.70
148;DHT22;142;50.652;12.216;2023-04-19T14:16:31;12.10;78.80
148;DHT22;142;50.652;12.216;2023-04-19T14:18:58;12.30;80.40
148;DHT22;142;50.652;12.216;2023-04-19T14:21:25;12.50;80.50
148;DHT22;142;50.652;12.216;2023-04-19T14:23:53;12.20;80.30
148;DHT22;142;50.652;12.216;2023-04-19T14:26:21;12.20;83.10
148;DHT22;142;50.652;12.216;2023-04-19T14:28:48;11.70;88.60
148;DHT22;142;50.652;12.216;2023-04-19T14:31:16;10.40;82.70
148;DHT22;142;50.652;12.216;2023-04-19T14:33:44;9.60;69.10
148;DHT22;142;50.652;12.216;2023-04-19T14:36:11;9.30;49.70
148;DHT22;142;50.652;12.216;2023-04-19T14:38:38;9.30;41.60
148;DHT22;142;50.652;12.216;2023-04-19T14:41:05;9.40;37.30
148;DHT22;142;50.652;12.216;2023-04-19T14:43:32;9.40;33.20
148;DHT22;142;50.652;12.216;2023-04-19T14:45:59;9.50;30.60
148;DHT22;142;50.652;12.216;2023-04-19T14:48:28;9.80;26.30
148;DHT22;142;50.652;12.216;2023-04-19T14:50:55;9.90;26.90
148;DHT22;142;50.652;12.216;2023-04-19T14:53:22;10.00;28.30
148;DHT22;142;50.652;12.216;2023-04-19T14:55:49;10.10;34.50
148;DHT22;142;50.652;12.216;2023-04-19T14:58:16;10.30;32.20
148;DHT22;142;50.652;12.216;2023-04-19T15:00:43;10.30;43.10
148;DHT22;142;50.652;12.216;2023-04-19T15:03:10;10.50;46.50
148;DHT22;142;50.652;12.216;2023-04-19T15:05:39;10.70;47.80
148;DHT22;142;50.652;12.216;2023-04-19T15:08:07;10.80;51.60
148;DHT22;142;50.652;12.216;2023-04-19T15:10:34;10.50;69.60
148;DHT22;142;50.652;12.216;2023-04-19T15:13:01;10.40;70.60
148;DHT22;142;50.652;12.216;2023-04-19T15:15:28;10.40;70.70
148;DHT22;142;50.652;12.216;2023-04-19T15:17:56;10.40;71.50
148;DHT22;142;50.652;12.216;2023-04-19T15:20:23;10.40;72.50
148;DHT22;142;50.652;12.216;2023-04-19T15:22:53;10.30;71.70
148;DHT22;142;50.652;12.216;2023-04-19T15:25:26;10.40;72.90
148;DHT22;142;50.652;12.216;2023-04-19T15:27:53;10.40;72.80
148;DHT22;142;50.652;12.216;2023-04-19T15:30:21;10.40;74.00
148;DHT22;142;50.652;12.216;2023-04-19T15:32:48;10.40;77.90
148;DHT22;142;50.652;12.216;2023-04-19T15:35:15;10.30;80.70
148;DHT22;142;50.652;12.216;2023-04-19T15:37:42;10.20;78.90
148;DHT22;142;50.652;12.216;2023-04-19T15:40:12;10.20;80.90
148;DHT22;142;50.652;12.216;2023-04-19T15:42:41;10.30;78.90
148;DHT22;142;50.652;12.216;2023-04-19T15:45:09;10.30;81.00
148;DHT22;142;50.652;12.216;2023-04-19T15:47:36;10.40;79.00
148;DHT22;142;50.652;12.216;2023-04-19T15:50:05;10.50;78.50
148;DHT22;142;50.652;12.216;2023-04-19T15:52:32;10.60;78.00
148;DHT22;142;50.652;12.216;2023-04-19T15:54:59;10.70;78.90
148;DHT22;142;50.652;12.216;2023-04-19T15:57:28;10.70;79.90
148;DHT22;142;50.652;12.216;2023-04-19T15:59:55;10.80;80.70
148;DHT22;142;50.652;12.216;2023-04-19T16:02:23;10.90;81.40
148;DHT22;142;50.652;12.216;2023-04-19T16:04:50;11.00;83.20
148;DHT22;142;50.652;12.216;2023-04-19T16:07:17;11.00;83.90
148;DHT22;142;50.652;12.216;2023-04-19T16:09:45;11.00;85.50
148;DHT22;142;50.652;12.216;2023-04-19T16:12:11;11.00;85.40
148;DHT22;142;50.652;12.216;2023-04-19T16:14:41;11.10;85.10
148;DHT22;142;50.652;12.216;2023-04-19T16:17:08;11.20;85.30
148;DHT22;142;50.652;12.216;2023-04-19T16:19:35;11.20;85.80
148;DHT22;142;50.652;12.216;2023-04-19T16:22:02;11.30;85.80
148;DHT22;142;50.652;12.216;2023-04-19T16:24:30;11.30;85.80
148;DHT22;142;50.652;12.216;2023-04-19T16:26:57;11.40;86.00
148;DHT22;142;50.652;12.216;2023-04-19T16:29:24;11.50;84.50
148;DHT22;142;50.652;12.216;2023-04-19T16:31:52;11.60;84.20
148;DHT22;142;50.652;12.216;2023-04-19T16:34:20;11.40;82.90
148;DHT22;142;50.652;12.216;2023-04-19T16:36:47;11.20;84.10